Data for 05/09/2013

Time Sea-Level Adjusted Pressure Absolute Pressure Temperature Relative Humidity Dew Point   
(mb) (inHg) (mb) (inHg) (C) (F) (%) (C) (F)
00:05 1021 30.15 850 25.1 11.8 53.3 42 -0.8 30.6
00:10 1021 30.15 850 25.1 11.7 53.1 42 -0.8 30.6
00:15 1021 30.15 850 25.1 11.9 53.4 42 -0.7 30.7
00:20 1021 30.15 850 25.1 11.8 53.3 42 -0.7 30.7
00:25 1021 30.15 850 25.1 11.8 53.2 42 -0.7 30.7
00:30 1021 30.15 850 25.1 11.8 53.2 41 -0.9 30.4
00:35 1021 30.15 850 25.1 12.1 53.9 41 -0.7 30.8
00:40 1021 30.15 850 25.1 12.1 53.7 41 -0.6 30.8
00:45 1021 30.15 850 25.1 12 53.6 41 -0.6 30.9
00:50 1021 30.15 850 25.1 11.9 53.5 42 -0.4 31.3
00:55 1021 30.15 850 25.1 11.7 53.1 43 -0.3 31.4
01:00 1021 30.15 850 25.1 11.4 52.6 44 -0.2 31.6
01:05 1021 30.15 850 25.1 11.1 52.1 45 -0.3 31.5
01:10 1021 30.15 850 25.1 11.1 51.9 46 -0.2 31.7
01:15 1021 30.15 850 25.1 10.8 51.4 46 -0.2 31.6
01:20 1021 30.15 850 25.1 10.9 51.7 46 -0 31.9
01:25 1021 30.15 850 25.1 10.5 50.9 48 0 32.1
01:30 1021 30.15 850 25.1 10.1 50.3 49 -0.1 31.9
01:35 1021 30.15 850 25.1 10.1 50.2 49 -0.1 31.9
01:40 1021 30.15 851 25.13 10.2 50.4 49 0 32
01:45 1021 30.15 851 25.13 10.3 50.5 49 0.1 32.2
01:50 1021 30.15 851 25.13 10.1 50.2 49 0 32
01:55 1021 30.15 851 25.13 9.6 49.3 50 -0.2 31.6
02:00 1021 30.15 851 25.13 9.4 48.8 51 -0.3 31.5
02:05 1021 30.15 851 25.13 9.3 48.7 51 -0.2 31.7
02:10 1021 30.15 851 25.13 9.3 48.7 52 -0.1 31.8
02:15 1021 30.15 851 25.13 9.3 48.8 51 -0.3 31.4
02:20 1021 30.15 851 25.13 9.4 48.8 51 -0.3 31.5
02:25 1021 30.15 851 25.13 9.4 48.8 52 -0 31.9
02:30 1022 30.18 851 25.13 9.4 48.9 52 0 32.1
02:35 1021 30.15 851 25.13 9.4 48.9 52 0 32
02:40 1022 30.18 851 25.13 9.3 48.7 52 -0 31.9
02:45 1022 30.18 851 25.13 9.1 48.4 52 -0.1 31.7
02:50 1022 30.18 851 25.13 9 48.1 52 -0.3 31.4
02:55 1022 30.18 851 25.13 8.7 47.7 53 -0.3 31.5
03:00 1022 30.18 851 25.13 8.8 47.9 53 -0.3 31.4
03:05 1022 30.18 851 25.13 9 48.1 52 -0.3 31.5
03:10 1022 30.18 851 25.13 9.2 48.5 51 -0.3 31.5
03:15 1022 30.18 851 25.13 9.1 48.4 52 -0.1 31.9
03:20 1022 30.18 851 25.13 9 48.1 52 -0.4 31.2
03:25 1022 30.18 851 25.13 8.8 47.8 52 -0.4 31.2
03:30 1022 30.18 851 25.13 8.5 47.3 52 -0.7 30.7
03:35 1022 30.18 851 25.13 8.3 47 52 -1 30.2
03:40 1022 30.18 851 25.13 8.1 46.5 51 -1.5 29.3
03:45 1022 30.18 851 25.13 7.7 45.9 50 -2 28.4
03:50 1022 30.18 851 25.13 7.8 46 49 -2.3 27.9
03:55 1022 30.18 851 25.13 8 46.4 48 -2.3 27.9
04:00 1022 30.18 851 25.13 8.2 46.8 48 -2.2 28
04:05 1022 30.18 851 25.13 8.3 47 48 -1.9 28.5
04:10 1022 30.18 851 25.13 7.9 46.1 50 -2 28.5
04:15 1022 30.18 851 25.13 7.6 45.7 50 -2.2 28.1
04:20 1022 30.18 851 25.13 7.7 45.9 51 -1.9 28.6
04:25 1022 30.18 851 25.13 7.5 45.6 51 -1.9 28.7
04:30 1022 30.18 851 25.13 7.6 45.7 50 -2.1 28.2
04:35 1022 30.18 851 25.13 7.8 46 49 -2.1 28.2
04:40 1022 30.18 851 25.13 7.7 45.9 50 -2 28.4
04:45 1022 30.18 851 25.13 7.8 46 50 -1.9 28.6
04:50 1022 30.18 851 25.13 7.9 46.1 52 -1.3 29.6
04:55 1022 30.18 851 25.13 7.7 45.9 53 -1.2 29.9
05:00 1022 30.18 851 25.13 7.7 45.9 53 -1.3 29.7
05:05 1022 30.18 851 25.13 7.7 45.8 53 -1.2 29.9
05:10 1022 30.18 851 25.13 7.6 45.7 54 -1 30.1
05:15 1022 30.18 851 25.13 7.7 45.8 54 -0.9 30.4
05:20 1022 30.18 852 25.16 7.8 46.1 54 -1 30.3
05:25 1022 30.18 852 25.16 7.9 46.3 54 -0.9 30.4
05:30 1022 30.18 851 25.13 7.9 46.1 55 -0.7 30.8
05:35 1022 30.18 851 25.13 7.8 46 55 -0.5 31
05:40 1022 30.18 851 25.13 7.9 46.1 56 -0.5 31.1
05:45 1022 30.18 851 25.13 7.9 46.3 56 -0.4 31.3
05:50 1022 30.18 851 25.13 7.9 46.3 57 -0.2 31.7
05:55 1022 30.18 851 25.13 8 46.5 55 -0.4 31.4
06:00 1022 30.18 851 25.13 8.3 46.9 55 -0.3 31.5
06:05 1022 30.18 851 25.13 8.3 47 54 -0.4 31.2
06:10 1022 30.18 851 25.13 8.5 47.2 53 -0.5 31.1
06:15 1022 30.18 851 25.13 8.6 47.5 53 -0.4 31.2
06:20 1022 30.18 851 25.13 8.9 48 50 -0.9 30.4
06:25 1022 30.18 851 25.13 9.1 48.4 47 -1.5 29.3
06:30 1022 30.18 851 25.13 9.8 49.7 44 -1.7 28.9
06:35 1022 30.18 852 25.16 10.2 50.4 45 -1.3 29.7
06:40 1022 30.18 852 25.16 10.8 51.4 44 -1.1 30
06:45 1023 30.21 852 25.16 11.5 52.6 41 -1.2 29.9
06:50 1023 30.21 852 25.16 12.1 53.7 41 -0.8 30.5
06:55 1023 30.21 852 25.16 12.1 53.8 40 -0.9 30.3
07:00 1023 30.21 852 25.16 12.3 54.2 38 -1.5 29.3
07:05 1023 30.21 852 25.16 12.9 55.3 42 0.3 32.5
07:10 1023 30.21 852 25.16 12.4 54.4 44 0.7 33.2
07:15 1023 30.21 852 25.16 11.8 53.2 46 0.6 33.1
07:20 1023 30.21 852 25.16 11.1 51.9 48 0.6 33.1
07:25 1023 30.21 852 25.16 10.5 51 50 0.5 32.9
07:30 1023 30.21 852 25.16 10.5 50.8 51 0.8 33.4
07:35 1023 30.21 852 25.16 10.7 51.3 50 0.7 33.3
07:40 1023 30.21 852 25.16 11.1 51.9 48 0.6 33
07:45 1023 30.21 852 25.16 11.2 52.1 48 0.7 33.3
07:50 1023 30.21 852 25.16 10.9 51.7 47 0.2 32.4
07:55 1023 30.21 853 25.19 11.2 52.1 46 0.2 32.3
08:00 1023 30.21 853 25.19 11.5 52.6 46 0.4 32.7
08:05 1023 30.21 853 25.19 11.8 53.2 44 -0.1 31.8
08:10 1023 30.21 852 25.16 12.5 54.5 41 -0.3 31.4
08:15 1023 30.21 852 25.16 13 55.4 41 0.2 32.3
08:20 1023 30.21 852 25.16 12.7 54.9 42 0.2 32.3
08:25 1023 30.21 852 25.16 13.3 56 41 0.4 32.8
08:30 1023 30.21 853 25.19 13.5 56.4 40 0.2 32.4
08:35 1023 30.21 853 25.19 13.6 56.4 40 0.3 32.5
08:40 1023 30.21 853 25.19 14 57.2 38 0.1 32.1
08:45 1023 30.21 853 25.19 14.9 58.8 35 -0.5 31.2
08:50 1023 30.21 853 25.19 14.6 58.3 38 0.5 32.8
08:55 1023 30.21 853 25.19 14.1 57.5 36 -0.5 31
09:00 1023 30.21 853 25.19 15 59 35 -0.3 31.4
09:05 1023 30.21 853 25.19 15.4 59.8 35 0.2 32.3
09:10 1023 30.21 853 25.19 15.8 60.5 32 -0.5 31
09:15 1023 30.21 852 25.16 15.7 60.3 34 0 32.1
09:20 1023 30.21 852 25.16 15.3 59.5 35 0.2 32.4
09:25 1023 30.21 852 25.16 15.4 59.8 33 -0.6 31
09:30 1023 30.21 852 25.16 15.8 60.4 32 -0.8 30.6
09:35 1023 30.21 852 25.16 15.7 60.3 32 -0.9 30.4
09:40 1023 30.21 852 25.16 16.4 61.6 31 -0.7 30.7
09:45 1023 30.21 852 25.16 17.4 63.4 31 0.4 32.7
09:50 1023 30.21 852 25.16 17 62.6 31 -0 31.9
09:55 1023 30.21 852 25.16 17.3 63.1 31 -0.1 31.8
10:00 1023 30.21 852 25.16 17.5 63.6 30 0 32.1
10:05 1023 30.21 852 25.16 17.4 63.4 30 -0.2 31.6
10:10 1023 30.21 852 25.16 18.3 65 28 -0.3 31.4
10:15 1023 30.21 852 25.16 18.5 65.3 29 0.1 32.2
10:20 1023 30.21 852 25.16 18.3 65 28 -0.2 31.7
10:25 1023 30.21 852 25.16 18.3 64.9 31 0.8 33.5
10:30 1023 30.21 852 25.16 19 66.3 27 -0.4 31.2
10:35 1023 30.21 852 25.16 20.3 68.6 25 -0.1 31.8
10:40 1023 30.21 852 25.16 21 69.7 25 0.2 32.3
10:45 1023 30.21 852 25.16 21 69.9 25 0.2 32.3
10:50 1023 30.21 852 25.16 20.2 68.4 26 0.1 32.2
10:55 1023 30.21 852 25.16 20.9 69.6 25 0.1 32.2
11:00 1023 30.21 852 25.16 21.4 70.5 24 0.1 32.1
11:05 1022 30.18 852 25.16 21 69.7 25 0.3 32.5
11:10 1022 30.18 852 25.16 19.4 67 25 -1.2 29.9
11:15 1022 30.18 852 25.16 19.8 67.7 25 -0.8 30.5
11:20 1022 30.18 852 25.16 20.3 68.6 25 -0.2 31.7
11:25 1022 30.18 852 25.16 20.4 68.7 24 -0.9 30.3
11:30 1022 30.18 851 25.13 20.7 69.2 24 -0.6 31
11:35 1022 30.18 851 25.13 21.2 70.2 23 -0.5 31.1
11:40 1022 30.18 851 25.13 20.7 69.2 24 -0.7 30.7
11:45 1022 30.18 851 25.13 20.9 69.7 23 -1.1 30.1
11:50 1022 30.18 851 25.13 21.3 70.4 22 -1.3 29.7
11:55 1022 30.18 851 25.13 21.7 71 21 -1.1 29.9
12:00 1022 30.18 851 25.13 21.8 71.3 22 -0.6 31
12:05 1022 30.18 851 25.13 21.6 70.9 24 0.1 32.2
12:10 1022 30.18 851 25.13 21.1 69.9 23 -0.5 31.2
12:15 1022 30.18 851 25.13 21.2 70.1 23 -0.9 30.4
12:20 1022 30.18 851 25.13 22.2 71.9 21 -0.8 30.6
12:25 1022 30.18 851 25.13 22.8 73 20 -1.4 29.4
12:30 1022 30.18 851 25.13 21.7 71 21 -1.4 29.5
12:35 1022 30.18 851 25.13 22.1 71.7 19 -2.4 27.7
12:40 1022 30.18 851 25.13 22.3 72.1 20 -1.9 28.6
12:45 1022 30.18 851 25.13 22.4 72.4 21 -1 30.2
12:50 1022 30.18 851 25.13 22.3 72.1 19 -2.1 28.2
12:55 1022 30.18 851 25.13 21.9 71.4 21 -1 30.2
13:00 1021 30.15 851 25.13 21.7 71.1 21 -1.7 29
13:05 1021 30.15 851 25.13 23.1 73.6 18 -2 28.3
13:10 1021 30.15 851 25.13 23.5 74.3 17 -2.9 26.8
13:15 1021 30.15 851 25.13 22.9 73.2 19 -2.1 28.3
13:20 1021 30.15 851 25.13 22.1 71.7 18 -3.4 25.8
13:25 1021 30.15 851 25.13 22.9 73.2 17 -3.1 26.4
13:30 1021 30.15 851 25.13 22.9 73.2 18 -2.7 27.2
13:35 1021 30.15 851 25.13 23 73.3 17 -3 26.6
13:40 1021 30.15 850 25.1 22.8 73 18 -2.8 27
13:45 1021 30.15 850 25.1 23 73.4 16 -3.9 25
13:50 1021 30.15 850 25.1 23 73.5 16 -4.3 24.2
13:55 1021 30.15 850 25.1 22.9 73.2 19 -2 28.4
14:00 1021 30.15 850 25.1 22.7 72.8 17 -3.4 26
14:05 1021 30.15 850 25.1 23.2 73.8 17 -2.8 26.9
14:10 1021 30.15 850 25.1 23 73.4 17 -3.5 25.7
14:15 1021 30.15 850 25.1 22.9 73.1 16 -4.2 24.5
14:20 1021 30.15 850 25.1 23.2 73.7 17 -3.3 26.1
14:25 1021 30.15 850 25.1 22.5 72.5 17 -3.8 25.1
14:30 1021 30.15 850 25.1 22.1 71.7 18 -3.3 26.1
14:35 1021 30.15 850 25.1 21.3 70.4 20 -2.3 27.8
14:40 1021 30.15 850 25.1 21.1 69.9 21 -1.7 28.9
14:45 1021 30.15 850 25.1 21.3 70.3 20 -2.1 28.2
14:50 1021 30.15 850 25.1 20.1 68.2 21 -2.6 27.4
14:55 1021 30.15 850 25.1 19.5 67.1 30 1.7 35.1
15:00 1021 30.15 850 25.1 18.3 64.9 32 1.3 34.4
15:05 1021 30.15 850 25.1 17.4 63.2 30 -0.2 31.7
15:10 1021 30.15 850 25.1 17.4 63.4 32 0.9 33.6
15:15 1021 30.15 851 25.13 17.1 62.8 35 1.8 35.2
15:20 1022 30.18 851 25.13 16 60.9 47 4.7 40.5
15:25 1021 30.15 851 25.13 15.2 59.3 49 4.5 40.1
15:30 1021 30.15 851 25.13 15.3 59.6 49 4.6 40.4
15:35 1021 30.15 851 25.13 15.6 60 51 5.4 41.8
15:40 1021 30.15 851 25.13 15.8 60.4 47 4.6 40.2
15:45 1021 30.15 851 25.13 15.8 60.4 47 4.7 40.5
15:50 1021 30.15 851 25.13 15.7 60.2 45 3.9 39.1
15:55 1021 30.15 851 25.13 15.9 60.6 47 4.6 40.2
16:00 1022 30.18 851 25.13 16.3 61.3 46 4.6 40.3
16:05 1022 30.18 851 25.13 16.8 62.2 41 3.7 38.6
16:10 1022 30.18 851 25.13 16.6 61.9 42 3.7 38.6
16:15 1022 30.18 851 25.13 16.9 62.4 43 4.4 39.9
16:20 1022 30.18 851 25.13 16.6 61.8 44 4.5 40
16:25 1022 30.18 851 25.13 16 60.8 44 3.7 38.7
16:30 1022 30.18 851 25.13 15.8 60.5 45 4 39.1
16:35 1022 30.18 851 25.13 15.8 60.4 45 4 39.2
16:40 1022 30.18 851 25.13 15.9 60.6 43 3.6 38.5
16:45 1022 30.18 851 25.13 15.8 60.5 44 3.7 38.7
16:50 1022 30.18 851 25.13 15.8 60.5 43 3.5 38.3
16:55 1022 30.18 851 25.13 16 60.7 43 3.3 38
17:00 1022 30.18 851 25.13 16.2 61.2 42 3.5 38.4
17:05 1022 30.18 851 25.13 16.3 61.3 41 3.2 37.8
17:10 1022 30.18 851 25.13 16.3 61.4 42 3.4 38.1
17:15 1022 30.18 851 25.13 16.4 61.6 41 3.4 38.1
17:20 1022 30.18 851 25.13 16.6 61.9 40 3.1 37.6
17:25 1022 30.18 851 25.13 16.9 62.3 38 2.7 36.9
17:30 1022 30.18 851 25.13 17 62.7 38 2.9 37.3
17:35 1022 30.18 851 25.13 17.4 63.3 37 2.6 36.7
17:40 1022 30.18 851 25.13 17.4 63.2 37 2.5 36.5
17:45 1022 30.18 851 25.13 17.2 62.9 37 2.6 36.6
17:50 1022 30.18 851 25.13 17.3 63.1 37 2.7 36.8
17:55 1022 30.18 851 25.13 17.4 63.3 36 2.3 36.2
18:00 1022 30.18 851 25.13 17.4 63.2 37 2.6 36.6
18:05 1022 30.18 851 25.13 17.3 63.1 36 2.1 35.8
18:10 1021 30.15 851 25.13 17.4 63.3 35 2 35.5
18:15 1021 30.15 851 25.13 17.4 63.4 34 1.6 34.9
18:20 1021 30.15 851 25.13 17.4 63.2 34 1.5 34.8
18:25 1021 30.15 851 25.13 17.4 63.4 33 1.3 34.3
18:30 1021 30.15 851 25.13 17.5 63.5 33 1.3 34.3
18:35 1021 30.15 851 25.13 17.4 63.2 34 1.3 34.4
18:40 1021 30.15 851 25.13 17.3 63.1 35 1.7 35
18:45 1022 30.18 851 25.13 17.2 62.9 35 1.7 35.1
18:50 1022 30.18 851 25.13 17.1 62.7 36 2 35.7
18:55 1022 30.18 851 25.13 16.9 62.5 37 2.3 36.1
19:00 1021 30.15 851 25.13 16.8 62.2 38 2.5 36.6
19:05 1021 30.15 851 25.13 16.7 62 38 2.2 36
19:10 1021 30.15 851 25.13 16.6 61.9 36 1.6 34.9
19:15 1022 30.18 851 25.13 16.6 61.9 36 1.7 35.1
19:20 1022 30.18 851 25.13 16.4 61.6 38 2.1 35.8
19:25 1022 30.18 851 25.13 16.2 61.1 39 2.4 36.4
19:30 1022 30.18 851 25.13 15.9 60.5 40 2.2 36
19:35 1022 30.18 851 25.13 15.7 60.2 41 2.5 36.5
19:40 1022 30.18 851 25.13 15.5 59.8 42 2.5 36.6
19:45 1022 30.18 851 25.13 15.3 59.5 42 2.5 36.5
19:50 1022 30.18 851 25.13 15.2 59.3 42 2.3 36.2
19:55 1022 30.18 851 25.13 15.1 59.2 42 2.3 36.1
20:00 1022 30.18 851 25.13 15 58.9 42 2.3 36.1
20:05 1022 30.18 851 25.13 14.8 58.7 42 2.1 35.7
20:10 1022 30.18 851 25.13 14.7 58.5 42 2 35.7
20:15 1022 30.18 851 25.13 14.7 58.4 42 2 35.6
20:20 1022 30.18 851 25.13 14.5 58.1 43 2 35.7
20:25 1022 30.18 851 25.13 14.4 57.9 43 2.1 35.8
20:30 1022 30.18 851 25.13 14.2 57.5 46 2.9 37.2
20:35 1022 30.18 851 25.13 13.3 55.9 50 3.1 37.6
20:40 1022 30.18 851 25.13 12.7 54.8 52 3 37.5
20:45 1022 30.18 851 25.13 12.3 54.2 52 2.8 37
20:50 1022 30.18 851 25.13 12.3 54.1 51 2.6 36.7
20:55 1022 30.18 851 25.13 12.2 54 52 2.8 37.1
21:00 1022 30.18 851 25.13 12 53.7 52 2.6 36.7
21:05 1022 30.18 851 25.13 12 53.5 53 2.8 37
21:10 1022 30.18 851 25.13 11.7 53.1 54 2.7 36.9
21:15 1022 30.18 851 25.13 11.6 52.9 54 2.6 36.7
21:20 1022 30.18 851 25.13 11.5 52.7 53 2.4 36.3
21:25 1022 30.18 852 25.16 11.5 52.7 53 2.3 36.1
21:30 1022 30.18 852 25.16 11.5 52.7 53 2.2 36
21:35 1022 30.18 852 25.16 11.4 52.5 53 2.2 35.9
21:40 1022 30.18 852 25.16 11.1 52 54 2.2 35.9
21:45 1022 30.18 852 25.16 10.9 51.6 54 2 35.6
21:50 1023 30.21 852 25.16 10.9 51.7 53 1.9 35.4
21:55 1023 30.21 852 25.16 11.3 52.3 52 1.8 35.2
22:00 1023 30.21 852 25.16 11.5 52.6 52 2 35.6
22:05 1023 30.21 852 25.16 11.5 52.7 52 2.1 35.8
22:10 1023 30.21 852 25.16 11.4 52.4 53 2.2 35.9
22:15 1023 30.21 852 25.16 11.2 52.2 53 2.1 35.7
22:20 1023 30.21 852 25.16 11.2 52.1 53 1.9 35.5
22:25 1023 30.21 852 25.16 11.1 52 52 1.7 35.1
22:30 1023 30.21 852 25.16 11.5 52.6 50 1.5 34.6
22:35 1023 30.21 852 25.16 11.4 52.5 51 1.6 34.9
22:40 1023 30.21 852 25.16 11.4 52.4 51 1.7 35.1
22:45 1023 30.21 852 25.16 11.4 52.5 50 1.3 34.3
22:50 1023 30.21 852 25.16 11.6 53 49 1.3 34.3
22:55 1023 30.21 852 25.16 11.6 52.9 49 1.3 34.4
23:00 1023 30.21 852 25.16 11.5 52.7 49 1.3 34.4
23:05 1023 30.21 852 25.16 11.5 52.6 49 1.2 34.2
23:10 1023 30.21 852 25.16 11.4 52.5 50 1.3 34.3
23:15 1023 30.21 852 25.16 11.1 51.9 51 1.3 34.3
23:20 1023 30.21 852 25.16 10.8 51.5 51 1.1 34
23:25 1023 30.21 852 25.16 10.8 51.5 51 1.1 34
23:30 1023 30.21 852 25.16 10.8 51.4 52 1.3 34.4
23:35 1023 30.21 852 25.16 10.7 51.2 53 1.5 34.6
23:40 1023 30.21 852 25.16 10.6 51 53 1.4 34.5
23:45 1023 30.21 852 25.16 10.3 50.5 55 1.6 34.9
23:50 1023 30.21 852 25.16 9.7 49.5 56 1.4 34.5
23:55 1023 30.21 852 25.16 9.4 48.9 58 1.6 34.9
24:00 1023 30.21 852 25.16 9 48.3 59 1.5 34.7